Time;durP1;ratioP1;P1;durP2;ratioP2;P2;SDS_P1;SDS_P2;PMS_P1;PMS_P2;Temp;Humidity;BMP_temperature;BMP_pressure;BME280_temperature;BME280_humidity;BME280_pressure;Samples;Min_cycle;Max_cycle;Signal;HPM_P1;HPM_P2
2022/07/29 00:02:00;;;;;;;24.65;7.03;;;28.20;90.70;;;;;;5093566;28;20513;-71
2022/07/29 00:05:04;;;;;;;19.17;6.78;;;28.10;90.90;;;;;;5093739;28;20051;-70
2022/07/29 00:08:09;;;;;;;15.55;6.80;;;28.00;90.90;;;;;;5093467;28;20051;-71
2022/07/29 00:11:13;;;;;;;18.15;7.20;;;28.10;90.60;;;;;;5093745;28;20043;-70
2022/07/29 00:14:17;;;;;;;16.70;7.03;;;27.90;91.00;;;;;;5093267;28;20043;-70
2022/07/29 00:17:21;;;;;;;15.00;7.00;;;27.70;91.20;;;;;;5093116;28;20043;-71
2022/07/29 00:20:25;;;;;;;17.45;6.93;;;27.60;91.30;;;;;;5093229;28;20047;-72
2022/07/29 00:23:29;;;;;;;22.70;7.53;;;27.60;91.10;;;;;;5093317;28;20055;-72
2022/07/29 00:26:33;;;;;;;12.18;6.88;;;27.60;91.10;;;;;;5093075;28;20050;-70
2022/07/29 00:29:38;;;;;;;13.43;6.45;;;27.50;91.30;;;;;;5093201;28;20122;-71
2022/07/29 00:32:42;;;;;;;20.15;7.30;;;27.50;91.50;;;;;;5092504;28;20506;-70
2022/07/29 00:35:46;;;;;;;17.65;7.28;;;27.40;91.60;;;;;;5093129;28;20039;-71
2022/07/29 00:38:51;;;;;;;16.98;7.00;;;27.30;91.60;;;;;;5092713;28;20494;-71
2022/07/29 00:41:55;;;;;;;15.98;6.93;;;27.30;92.00;;;;;;5092894;28;20039;-71
2022/07/29 00:44:59;;;;;;;16.83;7.30;;;27.50;91.80;;;;;;5092953;28;20039;-71
2022/07/29 00:48:04;;;;;;;20.33;7.80;;;27.50;91.60;;;;;;5092906;28;20047;-71
2022/07/29 00:51:10;;;;;;;16.95;6.85;;;27.50;91.70;;;;;;5092975;28;20391;-71
2022/07/29 00:54:14;;;;;;;19.58;7.53;;;27.50;91.80;;;;;;5092739;28;20039;-71
2022/07/29 00:57:18;;;;;;;19.55;7.30;;;27.50;91.70;;;;;;5092641;28;20383;-71
2022/07/29 01:00:24;;;;;;;24.75;8.43;;;27.50;91.80;;;;;;5091434;28;20043;-70
2022/07/29 01:03:28;;;;;;;22.02;7.47;;;27.40;91.70;;;;;;5092736;28;20051;-70
2022/07/29 01:06:33;;;;;;;17.60;7.10;;;27.30;91.80;;;;;;5092212;28;20059;-70
2022/07/29 01:09:38;;;;;;;17.33;6.78;;;27.20;91.70;;;;;;5092564;28;20051;-72
2022/07/29 01:12:44;;;;;;;19.95;6.63;;;27.10;91.90;;;;;;5092182;28;20043;-72
2022/07/29 01:15:59;;;;;;;13.55;7.00;;;27.00;92.00;;;;;;5092288;28;20059;-72
2022/07/29 01:19:34;;;;;;;17.17;7.18;;;27.10;91.90;;;;;;5092049;28;20098;-72
2022/07/29 01:22:54;;;;;;;17.13;7.22;;;27.10;91.80;;;;;;5092271;28;20051;-71
2022/07/29 01:26:28;;;;;;;21.08;7.00;;;27.10;91.60;;;;;;5091809;28;20511;-70
2022/07/29 01:29:38;;;;;;;13.90;6.18;;;27.20;91.60;;;;;;5091815;28;20506;-71
2022/07/29 01:32:48;;;;;;;23.35;7.85;;;27.20;91.40;;;;;;5091866;28;20039;-71
2022/07/29 01:35:52;;;;;;;17.40;7.55;;;27.30;91.30;;;;;;5092094;28;20055;-71
2022/07/29 01:39:22;;;;;;;17.85;7.63;;;27.20;91.40;;;;;;5091642;28;20051;-71
2022/07/29 01:42:42;;;;;;;16.80;7.60;;;27.20;91.30;;;;;;5097466;28;20059;-70
2022/07/29 01:46:04;;;;;;;15.55;6.70;;;27.10;91.50;;;;;;5090901;28;20039;-71
2022/07/29 01:49:18;;;;;;;11.82;7.00;;;27.10;91.50;;;;;;5091469;28;20059;-71
2022/07/29 01:52:33;;;;;;;18.27;6.53;;;27.10;91.50;;;;;;5091526;28;20047;-71
2022/07/29 01:55:45;;;;;;;19.50;5.72;;;27.20;91.40;;;;;;5091551;28;20043;-71
2022/07/29 01:58:53;;;;;;;16.55;6.50;;;27.30;91.30;;;;;;5091270;28;20047;-71
2022/07/29 02:01:59;;;;;;;13.68;6.65;;;27.30;91.30;;;;;;5091766;28;20054;-71
2022/07/29 02:05:05;;;;;;;16.77;6.20;;;27.20;91.30;;;;;;5091287;28;20039;-71
2022/07/29 02:08:11;;;;;;;13.23;6.38;;;27.20;91.40;;;;;;5090636;28;20051;-72
2022/07/29 02:11:16;;;;;;;18.13;6.82;;;27.10;91.40;;;;;;5091328;28;20059;-70
2022/07/29 02:14:22;;;;;;;18.48;7.15;;;27.00;91.60;;;;;;5091565;28;20415;-70
2022/07/29 02:17:32;;;;;;;16.50;7.13;;;27.10;91.60;;;;;;5090389;28;20047;-70
2022/07/29 02:20:39;;;;;;;13.93;6.55;;;27.10;91.60;;;;;;5091396;28;20043;-72
2022/07/29 02:23:46;;;;;;;13.85;6.65;;;27.00;91.50;;;;;;5090936;28;20392;-70
2022/07/29 02:26:52;;;;;;;19.88;7.13;;;27.10;91.90;;;;;;5090873;28;20051;-71
2022/07/29 02:30:00;;;;;;;13.82;6.70;;;27.00;91.60;;;;;;5090917;28;20529;-72
2022/07/29 02:33:05;;;;;;;21.20;7.32;;;26.90;91.80;;;;;;5091110;28;20047;-71
2022/07/29 02:36:11;;;;;;;15.35;6.57;;;26.70;92.10;;;;;;5090731;28;20074;-72
2022/07/29 02:39:15;;;;;;;15.07;6.15;;;26.70;92.30;;;;;;5091502;28;20047;-71
2022/07/29 02:42:21;;;;;;;14.90;6.40;;;26.70;92.30;;;;;;5091101;28;20051;-71
2022/07/29 02:45:26;;;;;;;13.75;6.30;;;26.60;92.40;;;;;;5091184;28;20103;-71
2022/07/29 02:48:56;;;;;;;17.95;5.68;;;26.70;92.40;;;;;;5090753;28;20059;-70
2022/07/29 02:52:34;;;;;;;10.15;5.72;;;26.70;92.30;;;;;;5091084;28;20504;-70
2022/07/29 02:55:54;;;;;;;12.13;6.22;;;26.60;92.50;;;;;;5090933;28;20059;-71
2022/07/29 02:59:02;;;;;;;16.50;6.63;;;26.80;92.30;;;;;;5090034;28;20047;-71
2022/07/29 03:02:08;;;;;;;13.55;6.18;;;26.80;92.00;;;;;;5091088;28;20059;-72
2022/07/29 03:05:18;;;;;;;17.52;7.13;;;26.70;92.20;;;;;;5090599;28;20047;-72
2022/07/29 03:08:22;;;;;;;17.17;6.93;;;26.50;92.50;;;;;;5090969;28;20043;-72
2022/07/29 03:11:27;;;;;;;13.32;7.45;;;26.40;92.70;;;;;;5090883;28;20043;-72
2022/07/29 03:14:31;;;;;;;22.45;7.65;;;26.40;92.80;;;;;;5090567;28;20039;-71
2022/07/29 03:17:39;;;;;;;14.95;7.28;;;26.40;92.80;;;;;;5090531;28;20039;-71
2022/07/29 03:20:43;;;;;;;22.35;6.90;;;26.40;92.80;;;;;;5090976;28;20055;-71
2022/07/29 03:23:47;;;;;;;25.60;8.55;;;26.40;92.90;;;;;;5090760;28;20047;-71
2022/07/29 03:26:52;;;;;;;19.90;7.00;;;26.30;93.00;;;;;;5089890;28;20051;-71
2022/07/29 03:29:56;;;;;;;24.40;7.63;;;26.30;93.00;;;;;;5090454;28;20497;-72
2022/07/29 03:33:00;;;;;;;18.05;7.15;;;26.30;92.90;;;;;;5090629;28;20395;-71
2022/07/29 03:36:05;;;;;;;14.77;6.95;;;26.30;92.90;;;;;;5094263;28;20051;-71
2022/07/29 03:39:10;;;;;;;14.98;6.15;;;26.30;93.00;;;;;;5093527;28;20051;-71
2022/07/29 03:42:15;;;;;;;12.20;5.93;;;26.40;92.80;;;;;;5094190;28;20046;-71
2022/07/29 03:45:20;;;;;;;13.45;7.05;;;26.40;92.60;;;;;;5093494;28;20514;-71
2022/07/29 03:48:26;;;;;;;16.63;6.82;;;26.40;92.60;;;;;;5093800;28;20043;-71
2022/07/29 03:51:30;;;;;;;13.48;6.65;;;26.40;92.50;;;;;;5093850;28;20504;-72
2022/07/29 03:54:35;;;;;;;18.35;7.38;;;26.40;92.40;;;;;;5093760;28;20047;-72
2022/07/29 03:57:40;;;;;;;17.75;6.90;;;26.30;92.30;;;;;;5093783;28;20250;-71
2022/07/29 04:00:44;;;;;;;16.33;7.63;;;26.30;92.20;;;;;;5094018;28;20051;-70
2022/07/29 04:03:48;;;;;;;17.02;7.18;;;26.20;92.30;;;;;;5094067;28;20047;-73
2022/07/29 04:06:52;;;;;;;14.95;7.00;;;26.20;92.60;;;;;;5092527;28;20047;-71
2022/07/29 04:09:56;;;;;;;17.00;6.53;;;26.00;92.60;;;;;;5093282;28;20051;-72
2022/07/29 04:13:00;;;;;;;17.90;6.55;;;25.70;93.10;;;;;;5093678;28;20543;-71
2022/07/29 04:16:04;;;;;;;20.13;6.43;;;25.40;93.20;;;;;;5093507;28;20051;-71
2022/07/29 04:19:08;;;;;;;17.88;6.80;;;25.40;93.40;;;;;;5093586;28;20415;-72
2022/07/29 04:22:12;;;;;;;14.05;6.03;;;25.60;92.90;;;;;;5093392;28;20498;-71
2022/07/29 04:25:16;;;;;;;19.20;7.22;;;25.70;92.70;;;;;;5093136;28;20043;-72
2022/07/29 04:28:23;;;;;;;13.95;6.85;;;25.70;92.60;;;;;;5092980;28;20039;-72
2022/07/29 04:31:27;;;;;;;19.35;6.20;;;25.70;92.50;;;;;;5093079;28;20043;-71
2022/07/29 04:34:31;;;;;;;20.05;5.88;;;25.80;92.30;;;;;;5093150;28;20043;-71
2022/07/29 04:37:35;;;;;;;12.43;5.93;;;25.80;92.20;;;;;;5093036;28;20396;-71
2022/07/29 04:40:39;;;;;;;20.05;6.20;;;25.90;92.30;;;;;;5092927;28;20047;-72
2022/07/29 04:43:45;;;;;;;19.38;6.82;;;26.20;92.00;;;;;;5093021;28;20031;-72
2022/07/29 04:46:50;;;;;;;20.10;7.38;;;26.60;91.30;;;;;;5093088;28;20043;-71
2022/07/29 04:49:55;;;;;;;19.67;7.78;;;27.20;90.60;;;;;;5092475;28;20051;-70
2022/07/29 04:52:59;;;;;;;30.02;7.47;;;27.60;89.40;;;;;;5092836;28;20051;-71
2022/07/29 04:56:03;;;;;;;36.35;7.53;;;28.20;87.80;;;;;;5092747;28;20053;-71
2022/07/29 04:59:07;;;;;;;16.00;6.07;;;28.50;86.70;;;;;;5092853;28;20039;-70
2022/07/29 05:02:11;;;;;;;28.15;6.53;;;28.90;85.10;;;;;;5092744;28;20039;-72
2022/07/29 05:05:15;;;;;;;16.67;5.97;;;29.40;84.20;;;;;;5091346;28;20039;-71
2022/07/29 05:08:19;;;;;;;18.90;6.38;;;29.70;83.40;;;;;;5092100;28;20395;-71
2022/07/29 05:11:23;;;;;;;23.23;5.70;;;30.20;82.10;;;;;;5092777;28;20055;-71
2022/07/29 05:14:27;;;;;;;24.23;5.10;;;30.40;81.30;;;;;;5092157;28;20206;-71
2022/07/29 05:17:31;;;;;;;16.63;6.00;;;30.40;81.50;;;;;;5092267;28;20047;-71
2022/07/29 05:20:35;;;;;;;20.15;7.00;;;30.00;82.00;;;;;;5092697;28;20043;-70
2022/07/29 05:23:39;;;;;;;19.85;6.60;;;29.60;83.30;;;;;;5092030;28;20493;-67
2022/07/29 05:26:43;;;;;;;20.02;6.68;;;29.20;84.70;;;;;;5091931;28;20047;-71
2022/07/29 05:29:47;;;;;;;13.50;5.60;;;29.40;84.90;;;;;;5092086;28;20058;-68
2022/07/29 05:32:51;;;;;;;14.80;5.97;;;29.80;83.60;;;;;;5092261;28;20234;-68
2022/07/29 05:35:58;;;;;;;19.90;6.63;;;29.90;83.50;;;;;;5092052;28;20049;-67
2022/07/29 05:39:03;;;;;;;23.30;6.93;;;29.60;84.70;;;;;;5092053;28;20043;-69
2022/07/29 05:42:10;;;;;;;22.02;8.20;;;29.70;85.00;;;;;;5091680;28;20047;-67
2022/07/29 05:45:14;;;;;;;20.13;6.38;;;29.90;85.20;;;;;;5091862;28;20050;-69
2022/07/29 05:48:18;;;;;;;19.85;7.55;;;30.10;85.40;;;;;;5091464;28;20043;-67
2022/07/29 05:51:22;;;;;;;21.70;7.20;;;30.20;84.30;;;;;;5091659;28;20047;-67
2022/07/29 05:54:26;;;;;;;28.77;7.57;;;30.20;84.70;;;;;;5091370;28;20043;-67
2022/07/29 05:57:31;;;;;;;21.55;6.80;;;30.30;84.70;;;;;;5091162;28;20055;-66
2022/07/29 06:00:35;;;;;;;25.63;7.90;;;30.50;84.60;;;;;;5091472;28;20043;-68
2022/07/29 06:03:41;;;;;;;35.78;8.00;;;30.60;84.30;;;;;;5091538;28;20051;-68
2022/07/29 06:06:45;;;;;;;31.10;8.20;;;30.50;84.20;;;;;;5090320;28;20391;-67
2022/07/29 06:09:49;;;;;;;19.85;8.10;;;30.50;84.80;;;;;;5091393;28;20094;-67
2022/07/29 06:12:53;;;;;;;19.20;6.85;;;30.20;85.40;;;;;;5091238;28;20043;-68
2022/07/29 06:15:58;;;;;;;21.27;7.53;;;30.10;87.00;;;;;;5091275;28;20063;-69
2022/07/29 06:19:02;;;;;;;662.13;57.88;;;30.10;87.30;;;;;;5090851;28;20387;-66
2022/07/29 06:22:05;;;;;;;25.05;7.15;;;30.50;86.70;;;;;;5091292;28;20039;-65
2022/07/29 06:25:09;;;;;;;20.70;6.47;;;30.80;86.10;;;;;;5090811;28;20055;-71
2022/07/29 06:28:13;;;;;;;19.40;6.85;;;31.00;85.50;;;;;;5091081;28;20043;-66
2022/07/29 06:31:17;;;;;;;17.77;5.65;;;31.10;85.00;;;;;;5078493;28;20054;-66
2022/07/29 06:34:21;;;;;;;22.35;6.05;;;31.20;86.10;;;;;;5091384;28;20059;-65
2022/07/29 06:37:25;;;;;;;16.33;5.72;;;31.00;86.40;;;;;;5091258;28;20043;-67
2022/07/29 06:43:52;;;;;;;12.07;4.40;;;30.90;87.30;;;;;;5091068;28;20067;-67
2022/07/29 06:46:57;;;;;;;15.55;5.53;;;31.20;86.10;;;;;;5090984;28;20047;-72
2022/07/29 06:50:00;;;;;;;18.13;5.43;;;31.50;85.40;;;;;;5090059;28;20506;-68
2022/07/29 06:53:05;;;;;;;16.88;4.82;;;31.80;84.70;;;;;;5090497;28;20529;-69
2022/07/29 06:56:09;;;;;;;16.75;5.35;;;32.00;83.20;;;;;;5090703;28;20043;-68
2022/07/29 06:59:14;;;;;;;16.60;5.63;;;32.10;83.10;;;;;;5090428;28;20043;-68
2022/07/29 07:02:18;;;;;;;14.27;4.63;;;32.20;82.90;;;;;;5090552;28;20047;-67
2022/07/29 07:05:22;;;;;;;14.88;5.32;;;32.50;82.90;;;;;;5090632;28;20487;-67
2022/07/29 07:08:26;;;;;;;13.82;4.93;;;32.70;81.70;;;;;;5090577;28;20051;-69
2022/07/29 07:11:34;;;;;;;11.85;5.22;;;32.70;81.20;;;;;;5094745;28;20055;-72
2022/07/29 07:14:39;;;;;;;14.75;4.80;;;32.70;80.60;;;;;;5094840;28;20047;-69
2022/07/29 07:17:43;;;;;;;21.17;5.47;;;32.70;80.90;;;;;;5094575;28;20051;-68
2022/07/29 07:20:47;;;;;;;19.27;5.35;;;32.60;81.00;;;;;;5093603;28;20494;-69
2022/07/29 07:23:51;;;;;;;22.02;5.53;;;32.70;81.30;;;;;;5094678;28;20107;-69
2022/07/29 07:26:55;;;;;;;15.48;5.53;;;32.80;80.90;;;;;;5094303;28;20055;-68
2022/07/29 07:29:59;;;;;;;17.98;6.18;;;32.90;80.30;;;;;;5094387;28;20050;-68
2022/07/29 07:33:04;;;;;;;18.10;6.07;;;33.10;80.30;;;;;;5094795;28;20047;-70
2022/07/29 07:36:08;;;;;;;17.85;5.75;;;33.00;80.70;;;;;;5094160;28;20047;-71
2022/07/29 07:39:12;;;;;;;19.13;6.47;;;33.20;79.80;;;;;;5094448;28;20051;-73
2022/07/29 07:42:16;;;;;;;17.80;5.88;;;33.40;79.10;;;;;;5093720;28;20047;-72
2022/07/29 07:45:20;;;;;;;21.48;5.85;;;33.90;77.50;;;;;;5094205;28;20209;-72
2022/07/29 07:48:24;;;;;;;13.50;5.25;;;34.00;76.90;;;;;;5094076;28;20039;-70
2022/07/29 07:51:28;;;;;;;16.25;4.88;;;34.10;76.30;;;;;;5093049;28;20437;-71
2022/07/29 07:54:32;;;;;;;13.38;5.15;;;34.30;76.30;;;;;;5093810;28;20047;-71
2022/07/29 07:57:36;;;;;;;15.77;5.20;;;34.60;75.60;;;;;;5093911;28;20047;-70
2022/07/29 08:00:40;;;;;;;14.52;5.53;;;34.60;75.50;;;;;;5093704;28;20043;-71
2022/07/29 08:03:44;;;;;;;19.15;5.40;;;34.20;75.20;;;;;;5092826;28;20046;-72
2022/07/29 08:06:49;;;;;;;20.42;5.10;;;33.70;75.40;;;;;;5093641;28;20043;-71
2022/07/29 08:09:53;;;;;;;11.13;4.90;;;33.10;76.80;;;;;;5093279;28;20074;-69
2022/07/29 08:12:57;;;;;;;13.68;4.93;;;32.80;77.70;;;;;;5093797;28;20051;-71
2022/07/29 08:16:10;;;;;;;14.10;4.57;;;33.20;76.20;;;;;;5093359;28;20046;-70
2022/07/29 08:19:15;;;;;;;14.07;4.05;;;33.60;75.30;;;;;;5093432;28;20055;-73
2022/07/29 08:22:19;;;;;;;14.18;3.75;;;34.30;70.40;;;;;;5093585;28;20062;-72
2022/07/29 08:25:23;;;;;;;16.77;4.47;;;34.80;68.10;;;;;;5093231;28;20043;-70
2022/07/29 08:28:27;;;;;;;14.63;4.95;;;34.90;68.90;;;;;;5093099;28;20395;-72
2022/07/29 08:31:30;;;;;;;13.13;4.65;;;34.80;69.90;;;;;;5092452;28;20063;-70
2022/07/29 08:34:34;;;;;;;13.45;4.32;;;34.50;70.20;;;;;;5092560;28;20502;-70
2022/07/29 08:37:39;;;;;;;8.60;4.32;;;35.10;68.60;;;;;;5092919;28;20050;-70
2022/07/29 08:40:44;;;;;;;7.13;4.13;;;36.60;66.80;;;;;;5092724;28;20051;-70
2022/07/29 08:43:49;;;;;;;15.75;4.53;;;38.00;64.00;;;;;;5093057;28;20039;-70
2022/07/29 08:46:53;;;;;;;11.90;4.65;;;38.50;63.30;;;;;;5092492;28;20043;-69
2022/07/29 08:49:57;;;;;;;17.67;4.43;;;38.90;61.30;;;;;;5095835;28;20063;-70
2022/07/29 08:53:02;;;;;;;13.57;4.25;;;39.00;60.40;;;;;;5093173;28;20043;-70
2022/07/29 08:56:07;;;;;;;11.50;4.55;;;38.90;60.90;;;;;;5091845;28;20046;-69
2022/07/29 08:59:12;;;;;;;11.27;4.22;;;39.10;59.90;;;;;;5092987;28;20058;-70
2022/07/29 09:02:20;;;;;;;9.88;4.30;;;39.20;60.00;;;;;;5093030;28;20391;-70
2022/07/29 09:05:27;;;;;;;13.77;4.45;;;39.00;60.30;;;;;;5091872;28;20043;-70
2022/07/29 09:08:32;;;;;;;15.00;4.95;;;38.90;61.00;;;;;;5091179;28;20043;-69
2022/07/29 09:11:36;;;;;;;21.85;5.53;;;38.80;60.70;;;;;;5091345;28;20059;-71
2022/07/29 09:14:40;;;;;;;15.63;5.65;;;38.50;61.00;;;;;;5092417;28;20043;-70
2022/07/29 09:17:49;;;;;;;11.25;5.13;;;38.30;61.70;;;;;;5092331;28;20047;-69
2022/07/29 09:24:16;;;;;;;10.02;5.30;;;38.70;60.90;;;;;;5091531;28;20071;-71
2022/07/29 09:27:25;;;;;;;14.45;4.80;;;38.70;60.80;;;;;;5092195;28;20498;-70
2022/07/29 09:30:29;;;;;;;11.40;4.38;;;39.10;60.50;;;;;;5092487;28;20494;-68
2022/07/29 09:33:35;;;;;;;12.88;5.05;;;39.70;61.50;;;;;;5091753;28;20059;-70
2022/07/29 09:36:43;;;;;;;13.13;5.18;;;39.80;60.90;;;;;;5079343;28;20043;-70
2022/07/29 09:39:47;;;;;;;19.77;5.30;;;39.60;61.20;;;;;;5092055;28;20047;-73
2022/07/29 09:42:57;;;;;;;11.38;5.50;;;38.20;60.60;;;;;;5091851;28;20372;-76
2022/07/29 09:46:14;;;;;;;16.42;5.20;;;37.20;63.90;;;;;;5090837;28;20502;-73
2022/07/29 09:49:18;;;;;;;17.50;6.30;;;36.00;65.20;;;;;;5091623;28;20047;-72
2022/07/29 09:52:22;;;;;;;15.05;6.10;;;35.30;66.90;;;;;;5091430;28;20039;-71
2022/07/29 09:55:26;;;;;;;15.10;6.53;;;34.70;68.60;;;;;;5091864;28;20059;-77
2022/07/29 09:58:30;;;;;;;15.10;5.43;;;34.40;70.10;;;;;;5091496;28;20047;-73
2022/07/29 10:01:35;;;;;;;18.08;5.47;;;34.60;70.80;;;;;;5091813;28;20499;-74
2022/07/29 10:04:42;;;;;;;18.92;5.93;;;34.80;70.40;;;;;;5091309;28;20059;-76
2022/07/29 10:07:57;;;;;;;18.90;5.97;;;35.00;69.60;;;;;;5091188;28;20387;-73
2022/07/29 10:11:15;;;;;;;19.45;5.90;;;34.80;69.80;;;;;;5091413;28;20055;-78
2022/07/29 10:14:19;;;;;;;12.75;5.68;;;34.50;70.00;;;;;;5090646;28;20513;-77
2022/07/29 10:17:23;;;;;;;17.27;5.43;;;34.30;69.90;;;;;;5091649;28;20383;-79
2022/07/29 10:20:28;;;;;;;13.95;5.93;;;34.40;70.20;;;;;;5091368;28;20043;-72
2022/07/29 10:23:33;;;;;;;16.50;5.32;;;34.60;70.20;;;;;;5091227;28;20039;-75
2022/07/29 10:26:40;;;;;;;16.02;6.25;;;34.70;69.70;;;;;;5091407;28;20650;-73
2022/07/29 10:29:44;;;;;;;15.95;5.28;;;34.90;70.50;;;;;;5091165;28;20043;-75
2022/07/29 10:33:26;;;;;;;18.92;6.18;;;34.90;69.70;;;;;;5090947;28;20047;-72
2022/07/29 10:36:53;;;;;;;12.95;5.22;;;35.00;69.30;;;;;;5091150;28;20055;-77
2022/07/29 10:43:44;;;;;;;11.82;5.07;;;34.90;69.00;;;;;;5093223;28;20059;-78
2022/07/29 10:46:50;;;;;;;12.98;5.25;;;35.00;69.60;;;;;;5095080;28;20490;-74
2022/07/29 10:50:03;;;;;;;13.55;4.90;;;35.00;68.50;;;;;;5094958;28;20050;-75
2022/07/29 10:53:07;;;;;;;14.77;5.30;;;35.00;68.90;;;;;;5095053;28;20039;-74
2022/07/29 10:56:30;;;;;;;17.13;5.20;;;34.90;69.20;;;;;;5094730;28;20039;-76
2022/07/29 10:59:36;;;;;;;9.60;4.63;;;35.10;68.30;;;;;;5095306;28;20206;-82
2022/07/29 11:02:40;;;;;;;9.95;4.88;;;36.40;67.40;;;;;;5093474;28;20044;-83
2022/07/29 11:05:56;;;;;;;21.23;5.45;;;37.00;66.20;;;;;;5094106;28;20498;-81
2022/07/29 11:09:22;;;;;;;18.73;5.13;;;37.70;64.40;;;;;;5095063;28;20356;-78
2022/07/29 11:12:38;;;;;;;14.77;4.75;;;37.80;64.80;;;;;;5093954;28;20043;-78
2022/07/29 11:15:53;;;;;;;10.13;4.97;;;37.80;64.80;;;;;;5094799;28;20387;-83
2022/07/29 11:19:13;;;;;;;13.55;4.60;;;37.30;64.80;;;;;;5094560;28;20068;-82
2022/07/29 11:22:35;;;;;;;11.77;4.78;;;36.90;65.60;;;;;;5094200;28;20039;-81
2022/07/29 11:25:39;;;;;;;9.82;4.30;;;36.40;66.10;;;;;;5093575;28;20051;-83
2022/07/29 11:28:51;;;;;;;13.10;4.53;;;36.10;66.90;;;;;;5095085;28;20039;-81
2022/07/29 11:32:09;;;;;;;14.32;4.68;;;35.90;67.70;;;;;;5093935;28;20055;-83
2022/07/29 11:35:23;;;;;;;12.77;4.32;;;35.70;68.20;;;;;;5093461;28;20058;-80
2022/07/29 11:38:28;;;;;;;17.52;4.72;;;35.50;68.80;;;;;;5094088;28;20051;-82
2022/07/29 11:41:36;;;;;;;17.23;4.47;;;36.20;68.00;;;;;;5094417;28;20387;-81
2022/07/29 11:45:06;;;;;;;16.90;4.63;;;37.50;65.70;;;;;;5093448;28;20118;-81
2022/07/29 11:48:17;;;;;;;16.95;3.83;;;37.80;63.80;;;;;;5094807;28;20055;-84
2022/07/29 11:51:22;;;;;;;19.88;5.00;;;38.30;64.80;;;;;;5094978;28;20530;-85
2022/07/29 11:54:31;;;;;;;13.90;4.72;;;38.10;63.40;;;;;;5093901;28;20392;-83
2022/07/29 11:58:05;;;;;;;40.93;6.17;;;37.90;64.20;;;;;;5094474;28;20051;-79
2022/07/29 12:01:14;;;;;;;14.07;4.00;;;37.50;65.00;;;;;;5093465;28;20055;-86
2022/07/29 12:04:17;;;;;;;17.95;4.80;;;37.60;64.90;;;;;;5093947;28;20419;-80
2022/07/29 12:07:33;;;;;;;11.25;4.13;;;37.50;64.60;;;;;;5091996;28;20043;-80
2022/07/29 12:10:38;;;;;;;11.07;3.95;;;37.50;64.30;;;;;;5093115;28;20063;-81
2022/07/29 12:13:42;;;;;;;23.10;4.82;;;37.60;64.50;;;;;;5093417;28;20499;-83
2022/07/29 12:16:46;;;;;;;10.23;3.60;;;37.70;63.70;;;;;;5093700;28;20039;-80
2022/07/29 12:19:50;;;;;;;15.65;3.97;;;37.50;63.70;;;;;;5094186;28;20059;-80
2022/07/29 12:22:55;;;;;;;8.93;3.45;;;37.40;63.60;;;;;;5091970;28;20039;-80
2022/07/29 12:25:59;;;;;;;17.13;4.40;;;36.90;64.30;;;;;;5091120;28;20055;-81
2022/07/29 12:29:03;;;;;;;11.10;4.15;;;36.60;65.00;;;;;;5092099;28;20048;-81
2022/07/29 12:32:08;;;;;;;11.60;3.80;;;36.30;65.10;;;;;;5091744;28;20047;-81
2022/07/29 12:35:21;;;;;;;10.95;3.65;;;36.00;64.60;;;;;;5093012;28;20047;-80
2022/07/29 12:38:29;;;;;;;11.57;3.75;;;35.90;66.00;;;;;;5092842;28;20051;-81
2022/07/29 12:41:35;;;;;;;7.18;3.90;;;35.70;65.40;;;;;;5092244;28;20043;-80
2022/07/29 12:44:49;;;;;;;13.13;3.92;;;35.60;65.60;;;;;;5092959;28;20042;-79
2022/07/29 12:47:53;;;;;;;12.50;4.13;;;35.50;65.50;;;;;;5093062;28;20593;-80
2022/07/29 12:50:59;;;;;;;10.43;4.50;;;35.50;65.50;;;;;;5092867;28;20525;-80
2022/07/29 12:54:10;;;;;;;7.65;3.38;;;35.30;65.70;;;;;;5093297;28;20368;-80
2022/07/29 12:57:14;;;;;;;11.80;4.57;;;35.30;65.60;;;;;;5092211;28;20043;-80
2022/07/29 13:00:23;;;;;;;13.35;3.60;;;35.20;65.70;;;;;;5092162;28;20043;-81
2022/07/29 13:03:27;;;;;;;13.52;4.22;;;35.10;65.80;;;;;;5092745;28;20043;-81
2022/07/29 13:06:45;;;;;;;13.85;3.92;;;35.00;65.60;;;;;;5091416;28;20498;-82
2022/07/29 13:09:49;;;;;;;9.90;4.50;;;35.00;65.80;;;;;;5092618;28;20059;-80
2022/07/29 13:13:13;;;;;;;12.82;4.25;;;34.90;66.30;;;;;;5092614;28;20047;-80
2022/07/29 13:16:18;;;;;;;19.77;4.60;;;34.90;66.30;;;;;;5092191;28;20051;-73
2022/07/29 13:19:37;;;;;;;12.38;4.07;;;35.40;66.40;;;;;;5091408;28;20043;-73
2022/07/29 13:22:42;;;;;;;15.00;3.88;;;36.60;63.70;;;;;;5091399;28;20054;-73
2022/07/29 13:25:46;;;;;;;9.25;4.07;;;36.90;63.00;;;;;;5092279;28;20046;-74
2022/07/29 13:28:50;;;;;;;15.55;3.90;;;37.50;62.40;;;;;;5091173;28;20040;-75
2022/07/29 13:31:54;;;;;;;10.43;4.18;;;38.10;61.60;;;;;;5091915;28;20051;-75
2022/07/29 13:35:05;;;;;;;12.02;4.40;;;38.30;60.90;;;;;;5090997;28;20039;-74
2022/07/29 13:38:09;;;;;;;10.43;3.47;;;38.00;61.10;;;;;;5091546;28;20059;-73
2022/07/29 13:41:13;;;;;;;19.50;4.40;;;38.00;61.10;;;;;;5092007;28;20074;-75
2022/07/29 13:44:18;;;;;;;13.20;4.00;;;37.90;60.90;;;;;;5090829;28;20399;-73
2022/07/29 13:47:23;;;;;;;12.15;3.95;;;37.80;61.00;;;;;;5091609;28;20359;-78
2022/07/29 13:50:27;;;;;;;14.93;4.00;;;37.70;60.90;;;;;;5091080;28;20267;-79
2022/07/29 13:53:32;;;;;;;8.98;3.63;;;37.60;60.90;;;;;;5091586;28;20035;-78
2022/07/29 13:56:36;;;;;;;11.75;3.88;;;37.50;61.00;;;;;;5078867;28;20483;-74
2022/07/29 13:59:41;;;;;;;7.93;3.25;;;37.70;60.60;;;;;;5091423;28;20051;-75
2022/07/29 14:02:45;;;;;;;15.85;3.88;;;37.50;60.90;;;;;;5091333;28;20039;-73
2022/07/29 14:05:49;;;;;;;14.70;3.38;;;38.00;60.20;;;;;;5091176;28;20035;-72
2022/07/29 14:08:54;;;;;;;10.27;3.20;;;37.60;60.20;;;;;;5091183;28;20395;-78
2022/07/29 14:11:58;;;;;;;12.90;3.90;;;37.40;60.00;;;;;;5090987;28;20055;-74
2022/07/29 14:15:02;;;;;;;10.98;3.63;;;37.50;60.50;;;;;;5091223;28;20050;-74
2022/07/29 14:18:06;;;;;;;18.83;5.28;;;37.50;60.80;;;;;;5090784;28;20047;-74
2022/07/29 14:21:10;;;;;;;11.07;3.80;;;37.70;60.40;;;;;;5090336;28;20404;-75
2022/07/29 14:24:14;;;;;;;17.20;4.22;;;37.40;60.60;;;;;;5090035;28;20047;-79
2022/07/29 14:27:18;;;;;;;10.63;3.92;;;37.40;60.10;;;;;;5089904;28;20047;-73
2022/07/29 14:30:22;;;;;;;24.20;4.18;;;38.00;59.60;;;;;;5090047;28;20046;-75
2022/07/29 14:33:26;;;;;;;9.63;3.40;;;38.30;58.80;;;;;;5090396;28;20518;-74
2022/07/29 14:36:30;;;;;;;11.48;4.00;;;38.30;58.20;;;;;;5090745;28;20043;-76
2022/07/29 14:39:36;;;;;;;13.20;3.30;;;37.80;59.10;;;;;;5090969;28;20063;-75
2022/07/29 14:42:40;;;;;;;11.10;3.75;;;37.90;58.80;;;;;;5091365;28;20051;-77
2022/07/29 14:45:45;;;;;;;12.10;3.40;;;37.70;58.60;;;;;;5090577;28;20054;-78
2022/07/29 14:48:49;;;;;;;16.75;3.97;;;37.50;58.80;;;;;;5091255;28;20055;-76
2022/07/29 14:51:53;;;;;;;15.18;4.30;;;37.50;59.00;;;;;;5090565;28;20055;-76
2022/07/29 14:54:57;;;;;;;13.25;4.30;;;37.20;59.00;;;;;;5090664;28;20039;-73
2022/07/29 14:58:01;;;;;;;7.85;3.35;;;36.90;59.10;;;;;;5090917;28;20047;-74
2022/07/29 15:01:06;;;;;;;13.35;3.80;;;37.10;59.10;;;;;;5090194;28;20035;-71
2022/07/29 15:04:10;;;;;;;9.77;3.13;;;36.90;59.20;;;;;;5090771;28;20055;-74
2022/07/29 15:07:15;;;;;;;10.45;4.13;;;37.20;59.60;;;;;;5089964;28;20491;-75
2022/07/29 15:10:19;;;;;;;20.90;4.50;;;37.50;58.50;;;;;;5090090;28;20544;-73
2022/07/29 15:13:23;;;;;;;8.38;3.80;;;37.90;58.70;;;;;;5091220;28;20055;-73
2022/07/29 15:16:27;;;;;;;11.77;3.72;;;37.20;58.10;;;;;;5089436;28;20048;-76
2022/07/29 15:19:31;;;;;;;14.88;3.80;;;36.40;59.60;;;;;;5090624;28;20051;-75
2022/07/29 15:22:37;;;;;;;9.63;3.47;;;35.90;60.60;;;;;;5091009;28;20391;-75
2022/07/29 15:25:42;;;;;;;15.35;4.65;;;35.50;60.80;;;;;;5089735;28;20043;-73
2022/07/29 15:28:46;;;;;;;11.80;3.67;;;35.30;61.90;;;;;;5090968;28;20043;-75
2022/07/29 15:31:49;;;;;;;10.50;3.45;;;35.10;62.00;;;;;;5093352;28;20067;-74
2022/07/29 15:34:53;;;;;;;11.30;3.60;;;35.00;62.30;;;;;;5094381;28;20043;-75
2022/07/29 15:37:58;;;;;;;12.52;3.65;;;34.80;62.30;;;;;;5094072;28;20051;-76
2022/07/29 15:41:02;;;;;;;13.00;4.00;;;34.70;63.00;;;;;;5094235;28;20043;-76
2022/07/29 15:44:07;;;;;;;15.20;3.35;;;34.60;62.80;;;;;;5093419;28;20046;-76
2022/07/29 15:47:11;;;;;;;10.15;3.08;;;34.50;62.50;;;;;;5093426;28;20047;-75
2022/07/29 15:50:15;;;;;;;13.32;3.65;;;34.40;62.50;;;;;;5094485;28;20055;-76
2022/07/29 15:53:19;;;;;;;13.05;3.30;;;34.40;62.30;;;;;;5094095;28;20046;-76
2022/07/29 15:56:23;;;;;;;11.50;3.95;;;34.40;62.80;;;;;;5093686;28;20043;-75
2022/07/29 15:59:28;;;;;;;7.55;3.55;;;34.30;63.10;;;;;;5093046;28;20058;-75
2022/07/29 16:02:35;;;;;;;12.48;4.18;;;34.20;63.70;;;;;;5093423;28;20043;-77
2022/07/29 16:05:39;;;;;;;10.95;4.47;;;34.10;63.80;;;;;;5093311;28;20043;-77
2022/07/29 16:08:43;;;;;;;19.60;3.85;;;34.10;63.60;;;;;;5092554;28;20487;-75
2022/07/29 16:11:49;;;;;;;8.00;3.08;;;33.90;63.80;;;;;;5093259;28;20451;-76